Time;durP1;ratioP1;P1;durP2;ratioP2;P2;SDS_P1;SDS_P2;PMS_P1;PMS_P2;Temp;Humidity;BMP_temperature;BMP_pressure;BME280_temperature;BME280_humidity;BME280_pressure;Samples;Min_cycle;Max_cycle;Signal;HPM_P1;HPM_P2
2023/09/28 06:45:59;;;;;;;;;6.00;3.33;;;;;;;;6206301;22;45760;-88
2023/09/28 06:48:25;;;;;;;;;1.00;1.00;;;;;;;;6249583;22;45409;-89
2023/09/28 06:50:52;;;;;;;;;4.33;4.00;;;;;;;;6249303;22;45133;-88
2023/09/28 06:53:18;;;;;;;;;2.67;2.00;;;;;;;;6248807;22;46400;-88
2023/09/28 06:58:55;;;;;;;;;3.33;3.33;;;;;;;;6214309;22;45431;-92
2023/09/28 07:10:06;;;;;;;;;5.33;4.33;;;;;;;;6185843;22;46992;-90
2023/09/28 07:12:31;;;;;;;;;2.00;2.00;;;;;;;;6248917;22;45217;-88
2023/09/28 07:14:56;;;;;;;;;3.00;3.00;;;;;;;;6248455;22;45301;-88
2023/09/28 07:17:22;;;;;;;;;4.00;3.00;;;;;;;;6246578;22;45656;-87
2023/09/28 07:19:48;;;;;;;;;2.00;1.33;;;;;;;;6222107;22;45172;-88
2023/09/28 07:22:15;;;;;;;;;4.00;3.00;;;;;;;;6250833;22;45403;-88
2023/09/28 07:24:40;;;;;;;;;8.33;8.33;;;;;;;;6249935;22;45414;-88
2023/09/28 07:27:05;;;;;;;;;3.00;3.00;;;;;;;;6248585;22;45231;-88
2023/09/28 07:29:31;;;;;;;;;2.67;2.00;;;;;;;;6248439;22;45175;-88
2023/09/28 07:31:56;;;;;;;;;4.33;3.67;;;;;;;;6250813;22;45240;-88
2023/09/28 07:34:21;;;;;;;;;4.33;1.00;;;;;;;;6249891;22;45453;-88
2023/09/28 07:36:46;;;;;;;;;2.00;2.00;;;;;;;;6250396;22;45409;-88
2023/09/28 07:39:12;;;;;;;;;3.67;3.00;;;;;;;;6249551;22;45344;-88
2023/09/28 07:41:37;;;;;;;;;4.33;1.67;;;;;;;;6250404;22;45300;-89
2023/09/28 07:44:02;;;;;;;;;2.67;1.33;;;;;;;;6250243;22;45358;-89
2023/09/28 07:46:28;;;;;;;;;4.67;4.67;;;;;;;;6248565;22;45353;-88
2023/09/28 07:48:55;;;;;;;;;3.33;3.33;;;;;;;;6249339;22;45295;-88
2023/09/28 07:51:20;;;;;;;;;5.67;2.33;;;;;;;;6250791;22;45153;-88
2023/09/28 07:53:46;;;;;;;;;7.00;3.00;;;;;;;;6222645;22;45981;-88
2023/09/28 07:56:11;;;;;;;;;2.33;2.33;;;;;;;;6248024;22;45277;-89
2023/09/28 07:58:36;;;;;;;;;5.33;2.00;;;;;;;;6221865;22;45117;-88
2023/09/28 08:01:01;;;;;;;;;2.33;1.00;;;;;;;;6250647;22;45102;-88
2023/09/28 08:03:27;;;;;;;;;4.33;3.00;;;;;;;;6248859;22;46269;-89
2023/09/28 08:05:54;;;;;;;;;4.67;3.00;;;;;;;;6221303;22;45219;-88
2023/09/28 08:08:19;;;;;;;;;1.00;1.00;;;;;;;;6223147;22;45190;-88
2023/09/28 08:10:44;;;;;;;;;5.67;4.00;;;;;;;;6249660;22;45207;-89
2023/09/28 08:13:10;;;;;;;;;4.00;2.33;;;;;;;;6248005;22;47000;-88
2023/09/28 08:15:35;;;;;;;;;4.67;3.00;;;;;;;;6249244;22;45398;-88
2023/09/28 08:18:01;;;;;;;;;2.00;1.00;;;;;;;;6250441;22;45334;-88
2023/09/28 08:20:26;;;;;;;;;1.33;1.33;;;;;;;;6248041;22;45329;-89
2023/09/28 08:22:51;;;;;;;;;2.33;2.00;;;;;;;;6247242;22;46128;-88
2023/09/28 08:25:18;;;;;;;;;2.33;1.67;;;;;;;;6248886;22;45369;-88
2023/09/28 08:27:43;;;;;;;;;2.00;2.00;;;;;;;;6250361;22;45268;-88
2023/09/28 08:30:08;;;;;;;;;2.33;2.33;;;;;;;;6220934;22;45306;-89
2023/09/28 08:32:33;;;;;;;;;2.00;2.00;;;;;;;;6250359;22;46493;-88
2023/09/28 08:34:59;;;;;;;;;5.33;2.33;;;;;;;;6249824;22;45416;-88
2023/09/28 08:37:24;;;;;;;;;1.00;1.00;;;;;;;;6250004;22;45220;-88
2023/09/28 08:39:50;;;;;;;;;2.00;2.00;;;;;;;;6249424;22;45272;-89
2023/09/28 08:42:18;;;;;;;;;7.67;3.00;;;;;;;;6249492;22;45231;-89
2023/09/28 08:44:44;;;;;;;;;1.00;1.00;;;;;;;;6249258;22;45606;-89
2023/09/28 08:47:16;;;;;;;;;0.33;0.33;;;;;;;;6222558;22;45192;-89
2023/09/28 08:49:44;;;;;;;;;2.00;2.00;;;;;;;;6219770;22;45443;-89
2023/09/28 08:52:11;;;;;;;;;2.00;2.00;;;;;;;;6249352;22;46290;-89
2023/09/28 08:54:36;;;;;;;;;2.33;2.33;;;;;;;;6222314;22;45682;-89
2023/09/28 08:57:01;;;;;;;;;0.67;0.67;;;;;;;;6249998;22;45252;-89
2023/09/28 08:59:30;;;;;;;;;5.33;2.00;;;;;;;;6221420;22;45566;-89
2023/09/28 09:01:56;;;;;;;;;6.00;4.00;;;;;;;;6249739;22;45347;-89
2023/09/28 09:04:21;;;;;;;;;13.67;13.67;;;;;;;;6222756;22;45304;-89
2023/09/28 09:06:47;;;;;;;;;13.33;13.33;;;;;;;;6250327;22;45276;-89
2023/09/28 09:09:15;;;;;;;;;3.00;3.00;;;;;;;;6249966;22;45238;-89
2023/09/28 09:11:44;;;;;;;;;2.00;2.00;;;;;;;;6245909;22;48219;-89
2023/09/28 09:14:11;;;;;;;;;4.33;4.33;;;;;;;;6222657;22;45466;-89
2023/09/28 09:16:36;;;;;;;;;4.00;4.00;;;;;;;;6250216;22;45311;-89
2023/09/28 09:19:01;;;;;;;;;7.67;7.67;;;;;;;;6249687;22;45217;-89
2023/09/28 09:21:37;;;;;;;;;8.00;7.33;;;;;;;;6249819;22;45168;-89
2023/09/28 09:24:03;;;;;;;;;2.67;2.67;;;;;;;;6250027;22;45236;-89
2023/09/28 09:26:52;;;;;;;;;3.00;2.67;;;;;;;;6221973;22;45193;-89
2023/09/28 09:29:18;;;;;;;;;14.00;10.67;;;;;;;;6221039;22;45759;-89
2023/09/28 09:31:45;;;;;;;;;6.33;4.33;;;;;;;;6221806;22;46048;-89
2023/09/28 09:34:14;;;;;;;;;2.33;2.33;;;;;;;;6249643;22;45274;-89
2023/09/28 09:36:41;;;;;;;;;7.33;7.00;;;;;;;;6249814;22;45372;-89
2023/09/28 09:39:08;;;;;;;;;4.00;3.00;;;;;;;;6249457;22;45434;-89
2023/09/28 09:41:46;;;;;;;;;2.00;2.00;;;;;;;;6221515;22;46042;-89
2023/09/28 09:44:15;;;;;;;;;3.00;2.00;;;;;;;;6220477;22;45198;-89
2023/09/28 09:46:40;;;;;;;;;1.33;1.00;;;;;;;;6249665;22;45272;-89
2023/09/28 09:49:07;;;;;;;;;4.00;2.00;;;;;;;;6248574;22;45339;-89
2023/09/28 09:51:32;;;;;;;;;1.00;1.00;;;;;;;;6247100;22;45728;-89
2023/09/28 09:53:58;;;;;;;;;1.00;1.00;;;;;;;;6249780;22;45569;-89
2023/09/28 09:56:24;;;;;;;;;1.00;1.00;;;;;;;;6249293;22;45348;-89
2023/09/28 09:58:53;;;;;;;;;1.33;1.33;;;;;;;;6249122;22;45244;-89
2023/09/28 10:01:19;;;;;;;;;3.00;0.00;;;;;;;;6221643;22;46812;-88
2023/09/28 10:03:48;;;;;;;;;1.33;1.33;;;;;;;;6220390;22;45242;-89
2023/09/28 10:06:19;;;;;;;;;0.67;0.67;;;;;;;;6249100;22;45311;-89
2023/09/28 10:08:46;;;;;;;;;2.33;2.33;;;;;;;;6222587;22;45474;-89
2023/09/28 10:11:12;;;;;;;;;1.00;1.00;;;;;;;;6220688;22;46982;-89
2023/09/28 10:13:37;;;;;;;;;5.67;4.33;;;;;;;;6222133;22;45301;-89
2023/09/28 10:27:17;;;;;;;;;1.00;1.00;;;;;;;;6195947;22;46950;-89
2023/09/28 10:29:43;;;;;;;;;0.00;0.00;;;;;;;;6248818;22;45160;-89
2023/09/28 10:32:30;;;;;;;;;6.00;3.00;;;;;;;;6249295;22;45252;-91
2023/09/28 10:41:01;;;;;;;;;0.67;0.67;;;;;;;;6238514;22;45558;-91
2023/09/28 10:43:29;;;;;;;;;0.67;0.67;;;;;;;;6248016;22;45485;-92
2023/09/28 11:04:39;;;;;;;;;0.00;0.00;;;;;;;;6241587;22;45478;-89
2023/09/28 11:07:11;;;;;;;;;1.00;1.00;;;;;;;;6250497;22;45242;-92
2023/09/28 11:09:38;;;;;;;;;0.00;0.00;;;;;;;;6263079;22;45385;-89
2023/09/28 11:12:08;;;;;;;;;0.00;0.00;;;;;;;;6253483;22;45254;-89
2023/09/28 11:14:34;;;;;;;;;0.00;0.00;;;;;;;;6281199;22;45350;-89
2023/09/28 11:16:59;;;;;;;;;0.00;0.00;;;;;;;;6281710;22;45338;-89
2023/09/28 11:19:25;;;;;;;;;0.33;0.33;;;;;;;;6280471;22;45339;-89
2023/09/28 11:21:50;;;;;;;;;0.00;0.00;;;;;;;;6281968;22;45341;-88
2023/09/28 11:24:15;;;;;;;;;1.00;1.00;;;;;;;;6281284;22;45432;-88
2023/09/28 11:26:42;;;;;;;;;0.67;0.67;;;;;;;;6279021;22;45336;-88
2023/09/28 11:29:09;;;;;;;;;1.00;1.00;;;;;;;;6280796;22;45398;-89
2023/09/28 11:31:35;;;;;;;;;0.00;0.00;;;;;;;;6252641;22;45498;-89
2023/09/28 11:34:01;;;;;;;;;1.00;1.00;;;;;;;;6281264;22;45208;-88
2023/09/28 11:36:27;;;;;;;;;3.67;1.00;;;;;;;;6279596;22;46139;-89
2023/09/28 11:38:53;;;;;;;;;1.00;1.00;;;;;;;;6280660;22;45483;-89
2023/09/28 11:41:20;;;;;;;;;0.00;0.00;;;;;;;;6281106;22;45242;-89
2023/09/28 11:43:46;;;;;;;;;1.33;1.00;;;;;;;;6279031;22;46240;-89
2023/09/28 11:46:15;;;;;;;;;1.00;1.00;;;;;;;;6281122;22;45346;-89
2023/09/28 11:48:40;;;;;;;;;0.67;0.67;;;;;;;;6281191;22;45232;-89
2023/09/28 11:51:06;;;;;;;;;0.67;0.67;;;;;;;;6281885;22;45149;-89
2023/09/28 11:53:32;;;;;;;;;1.33;1.33;;;;;;;;6280926;22;46114;-89
2023/09/28 11:55:59;;;;;;;;;1.00;1.00;;;;;;;;6280917;22;45188;-89
2023/09/28 11:58:25;;;;;;;;;0.67;0.67;;;;;;;;6279841;22;45268;-89
2023/09/28 12:00:50;;;;;;;;;1.00;1.00;;;;;;;;6279933;22;45164;-89
2023/09/28 12:03:16;;;;;;;;;2.00;2.00;;;;;;;;6281385;22;45346;-89
2023/09/28 12:05:41;;;;;;;;;1.00;1.00;;;;;;;;6252036;22;45348;-89
2023/09/28 12:08:07;;;;;;;;;1.00;1.00;;;;;;;;6252695;22;45424;-89
2023/09/28 12:10:32;;;;;;;;;1.00;1.00;;;;;;;;6281198;22;45397;-89
2023/09/28 12:12:58;;;;;;;;;0.33;0.33;;;;;;;;6279630;22;45365;-88
2023/09/28 12:15:23;;;;;;;;;0.67;0.67;;;;;;;;6280029;22;45461;-89
2023/09/28 12:17:49;;;;;;;;;0.00;0.00;;;;;;;;6253559;22;45437;-89
2023/09/28 12:20:14;;;;;;;;;1.00;1.00;;;;;;;;6278689;22;45540;-89
2023/09/28 12:22:40;;;;;;;;;2.00;2.00;;;;;;;;6277900;22;46788;-88
2023/09/28 12:25:06;;;;;;;;;1.00;1.00;;;;;;;;6279807;22;45256;-88
2023/09/28 12:27:31;;;;;;;;;1.00;1.00;;;;;;;;6251852;22;45284;-88
2023/09/28 12:29:57;;;;;;;;;1.00;1.00;;;;;;;;6253080;22;45478;-88
2023/09/28 12:32:22;;;;;;;;;2.00;2.00;;;;;;;;6280305;22;46359;-89
2023/09/28 12:34:47;;;;;;;;;1.00;1.00;;;;;;;;6280527;22;45334;-89
2023/09/28 12:37:13;;;;;;;;;1.00;1.00;;;;;;;;6253582;22;45695;-89
2023/09/28 12:39:38;;;;;;;;;1.33;1.33;;;;;;;;6253451;22;45222;-89
2023/09/28 12:42:03;;;;;;;;;0.67;0.67;;;;;;;;6252838;22;46894;-89
2023/09/28 12:44:33;;;;;;;;;1.00;1.00;;;;;;;;6280262;22;45402;-91
2023/09/28 12:47:05;;;;;;;;;1.00;1.00;;;;;;;;6251138;22;45110;-90
2023/09/28 12:49:31;;;;;;;;;1.00;1.00;;;;;;;;6252448;22;45384;-89
2023/09/28 12:51:56;;;;;;;;;1.00;1.00;;;;;;;;6278594;22;45365;-89
2023/09/28 12:54:22;;;;;;;;;1.00;1.00;;;;;;;;6252690;22;45439;-89
2023/09/28 12:56:47;;;;;;;;;2.33;2.00;;;;;;;;6249621;22;45380;-89
2023/09/28 12:59:15;;;;;;;;;2.00;2.00;;;;;;;;6276085;22;45443;-89
2023/09/28 13:01:41;;;;;;;;;16.00;15.67;;;;;;;;6280331;22;46065;-89
2023/09/28 13:04:06;;;;;;;;;4.00;3.33;;;;;;;;6279106;22;45148;-89
2023/09/28 13:06:35;;;;;;;;;1.00;1.00;;;;;;;;6279425;22;45418;-89
2023/09/28 13:09:00;;;;;;;;;1.33;1.33;;;;;;;;6280730;22;45283;-89
2023/09/28 13:11:29;;;;;;;;;1.67;1.00;;;;;;;;6251811;22;46828;-89
2023/09/28 13:13:54;;;;;;;;;1.00;1.00;;;;;;;;6280677;22;45173;-89
2023/09/28 13:16:22;;;;;;;;;1.00;1.00;;;;;;;;6279820;22;45257;-89
2023/09/28 13:18:47;;;;;;;;;1.00;1.00;;;;;;;;6280817;22;45404;-89
2023/09/28 13:21:13;;;;;;;;;1.33;1.33;;;;;;;;6252143;22;47633;-89
2023/09/28 13:23:39;;;;;;;;;2.00;2.00;;;;;;;;6280791;22;45091;-89
2023/09/28 13:26:05;;;;;;;;;1.00;1.00;;;;;;;;6252920;22;45426;-89
2023/09/28 13:28:30;;;;;;;;;0.00;0.00;;;;;;;;6252816;22;45249;-89
2023/09/28 13:30:57;;;;;;;;;3.00;2.00;;;;;;;;6279677;22;45456;-89
2023/09/28 13:33:23;;;;;;;;;0.00;0.00;;;;;;;;6252776;22;45398;-89
2023/09/28 13:35:51;;;;;;;;;4.33;3.00;;;;;;;;6252910;22;45294;-89
2023/09/28 13:38:17;;;;;;;;;2.00;2.00;;;;;;;;6252947;22;45589;-89
2023/09/28 13:40:43;;;;;;;;;2.67;2.67;;;;;;;;6278896;22;46469;-89
2023/09/28 13:43:09;;;;;;;;;2.00;1.67;;;;;;;;6252396;22;45118;-89
2023/09/28 13:45:34;;;;;;;;;4.33;4.33;;;;;;;;6280287;22;45359;-89
2023/09/28 13:48:01;;;;;;;;;4.00;4.00;;;;;;;;6280929;22;45382;-89
2023/09/28 13:50:30;;;;;;;;;1.00;1.00;;;;;;;;6280447;22;46201;-89
2023/09/28 13:52:55;;;;;;;;;0.67;0.67;;;;;;;;6280372;22;45152;-89
2023/09/28 13:55:21;;;;;;;;;1.00;1.00;;;;;;;;6280184;22;45404;-89
2023/09/28 13:57:47;;;;;;;;;3.33;2.33;;;;;;;;6253010;22;45519;-89
2023/09/28 14:00:21;;;;;;;;;0.67;0.67;;;;;;;;6280489;22;45215;-89
2023/09/28 14:02:48;;;;;;;;;2.67;1.67;;;;;;;;6252025;22;45763;-89
2023/09/28 14:05:13;;;;;;;;;14.00;13.67;;;;;;;;6279624;22;45478;-89
2023/09/28 14:07:38;;;;;;;;;6.00;6.00;;;;;;;;6280977;22;45125;-89
2023/09/28 14:10:04;;;;;;;;;1.00;1.00;;;;;;;;6251668;22;47364;-89
2023/09/28 14:12:29;;;;;;;;;1.00;1.00;;;;;;;;6279993;22;45373;-89
2023/09/28 14:14:54;;;;;;;;;0.00;0.00;;;;;;;;6252689;22;45277;-89
2023/09/28 14:17:20;;;;;;;;;1.67;1.67;;;;;;;;6281016;22;45351;-88
2023/09/28 14:19:45;;;;;;;;;3.33;2.00;;;;;;;;6251683;22;46098;-89
2023/09/28 14:22:10;;;;;;;;;1.33;1.33;;;;;;;;6280182;22;45432;-89
2023/09/28 14:24:35;;;;;;;;;6.00;6.00;;;;;;;;6280440;22;45520;-89
2023/09/28 14:27:01;;;;;;;;;2.00;2.00;;;;;;;;6279891;22;45404;-89
2023/09/28 14:29:26;;;;;;;;;0.67;0.67;;;;;;;;6280902;22;45393;-89
2023/09/28 14:31:52;;;;;;;;;0.33;0.33;;;;;;;;6253533;22;45378;-89
2023/09/28 14:34:17;;;;;;;;;0.67;0.67;;;;;;;;6281824;22;45326;-89
2023/09/28 14:36:42;;;;;;;;;2.33;1.33;;;;;;;;6253525;22;45493;-89
2023/09/28 14:39:07;;;;;;;;;3.00;3.00;;;;;;;;6281227;22;46080;-89
2023/09/28 14:41:37;;;;;;;;;1.00;1.00;;;;;;;;6252744;22;45291;-89
2023/09/28 14:44:03;;;;;;;;;2.00;2.00;;;;;;;;6281108;22;45275;-89
2023/09/28 14:46:28;;;;;;;;;1.00;1.00;;;;;;;;6281394;22;45463;-88
2023/09/28 14:48:54;;;;;;;;;2.67;2.67;;;;;;;;6280510;22;46398;-89
2023/09/28 14:51:19;;;;;;;;;0.67;0.67;;;;;;;;6280461;22;45345;-89
2023/09/28 14:53:45;;;;;;;;;1.67;1.67;;;;;;;;6279109;22;45319;-89
2023/09/28 14:56:10;;;;;;;;;6.33;5.67;;;;;;;;6280523;22;45687;-89
2023/09/28 14:58:35;;;;;;;;;2.00;0.00;;;;;;;;6253587;22;46940;-88
2023/09/28 15:01:01;;;;;;;;;0.33;0.33;;;;;;;;6278911;22;45371;-89
2023/09/28 15:03:26;;;;;;;;;4.33;2.67;;;;;;;;6281580;22;45405;-89
2023/09/28 15:05:51;;;;;;;;;1.33;0.67;;;;;;;;6253085;22;45362;-89
2023/09/28 15:08:17;;;;;;;;;1.33;1.33;;;;;;;;6253877;22;47368;-89
2023/09/28 15:10:43;;;;;;;;;0.67;0.67;;;;;;;;6253041;22;45760;-89
2023/09/28 15:13:09;;;;;;;;;14.67;14.67;;;;;;;;6280786;22;45300;-89
2023/09/28 15:15:34;;;;;;;;;2.00;2.00;;;;;;;;6281804;22;45240;-88
2023/09/28 15:18:00;;;;;;;;;1.33;1.33;;;;;;;;6253627;22;46833;-89
2023/09/28 15:20:25;;;;;;;;;1.33;0.33;;;;;;;;6280711;22;45132;-89
2023/09/28 15:22:51;;;;;;;;;0.33;0.33;;;;;;;;6281288;22;45452;-88
2023/09/28 15:25:16;;;;;;;;;3.00;1.67;;;;;;;;6281631;22;45474;-89
2023/09/28 15:27:41;;;;;;;;;2.67;2.67;;;;;;;;6277600;22;47209;-89
2023/09/28 15:30:07;;;;;;;;;2.33;2.33;;;;;;;;6252192;22;45248;-88
2023/09/28 15:32:33;;;;;;;;;6.33;2.00;;;;;;;;6280849;22;45179;-89
2023/09/28 15:34:58;;;;;;;;;2.00;2.00;;;;;;;;6280927;22;45097;-89
2023/09/28 15:37:24;;;;;;;;;2.00;2.00;;;;;;;;6281078;22;46190;-89
2023/09/28 15:39:49;;;;;;;;;0.00;0.00;;;;;;;;6279967;22;45285;-88
2023/09/28 15:42:14;;;;;;;;;2.00;2.00;;;;;;;;6280908;22;45291;-89
2023/09/28 15:44:40;;;;;;;;;7.00;6.00;;;;;;;;6281487;22;45312;-89
2023/09/28 15:47:05;;;;;;;;;10.67;10.67;;;;;;;;6280855;22;45336;-89
2023/09/28 15:49:30;;;;;;;;;3.00;3.00;;;;;;;;6252379;22;45397;-89
2023/09/28 15:51:55;;;;;;;;;1.33;1.33;;;;;;;;6278176;22;45366;-89
2023/09/28 15:54:21;;;;;;;;;2.33;0.67;;;;;;;;6281690;22;45336;-89
2023/09/28 15:56:46;;;;;;;;;1.33;1.33;;;;;;;;6280805;22;45242;-89
2023/09/28 15:59:11;;;;;;;;;1.00;1.00;;;;;;;;6279241;22;45351;-89
